sensor_id;sensor_type;location;lat;lon;timestamp;P1;durP1;ratioP1;P2;durP2;ratioP2
58460;SDS011;45558;37.752;-97.822;2024-03-07T00:02:09;23.67;;;4.53;;
58460;SDS011;45558;37.752;-97.822;2024-03-07T00:04:35;22.50;;;5.65;;
58460;SDS011;45558;37.752;-97.822;2024-03-07T00:07:01;39.30;;;7.65;;
58460;SDS011;45558;37.752;-97.822;2024-03-07T00:09:29;21.88;;;5.85;;
58460;SDS011;45558;37.752;-97.822;2024-03-07T00:11:57;25.88;;;5.00;;
58460;SDS011;45558;37.752;-97.822;2024-03-07T00:14:24;30.25;;;4.63;;
58460;SDS011;45558;37.752;-97.822;2024-03-07T00:16:55;25.75;;;4.90;;
58460;SDS011;45558;37.752;-97.822;2024-03-07T00:19:22;17.23;;;4.50;;
58460;SDS011;45558;37.752;-97.822;2024-03-07T00:21:52;28.50;;;4.30;;
58460;SDS011;45558;37.752;-97.822;2024-03-07T00:24:19;31.80;;;4.82;;
58460;SDS011;45558;37.752;-97.822;2024-03-07T00:26:48;28.27;;;5.43;;
58460;SDS011;45558;37.752;-97.822;2024-03-07T00:29:17;29.95;;;5.53;;
58460;SDS011;45558;37.752;-97.822;2024-03-07T00:31:46;29.13;;;5.63;;
58460;SDS011;45558;37.752;-97.822;2024-03-07T00:34:12;45.97;;;5.40;;
58460;SDS011;45558;37.752;-97.822;2024-03-07T00:36:43;32.00;;;5.10;;
58460;SDS011;45558;37.752;-97.822;2024-03-07T00:39:09;27.13;;;5.25;;
58460;SDS011;45558;37.752;-97.822;2024-03-07T00:41:38;25.48;;;4.18;;
58460;SDS011;45558;37.752;-97.822;2024-03-07T00:44:04;24.35;;;4.18;;
58460;SDS011;45558;37.752;-97.822;2024-03-07T00:46:30;25.42;;;5.03;;
58460;SDS011;45558;37.752;-97.822;2024-03-07T00:48:55;36.28;;;4.57;;
58460;SDS011;45558;37.752;-97.822;2024-03-07T00:51:21;37.17;;;5.05;;
58460;SDS011;45558;37.752;-97.822;2024-03-07T00:53:47;24.83;;;4.35;;
58460;SDS011;45558;37.752;-97.822;2024-03-07T00:56:13;36.58;;;6.78;;
58460;SDS011;45558;37.752;-97.822;2024-03-07T00:58:39;33.17;;;4.93;;
58460;SDS011;45558;37.752;-97.822;2024-03-07T01:01:05;35.33;;;5.50;;
58460;SDS011;45558;37.752;-97.822;2024-03-07T01:03:30;28.73;;;5.13;;
58460;SDS011;45558;37.752;-97.822;2024-03-07T01:05:56;24.10;;;4.93;;
58460;SDS011;45558;37.752;-97.822;2024-03-07T01:08:22;22.83;;;5.20;;
58460;SDS011;45558;37.752;-97.822;2024-03-07T01:10:48;27.45;;;4.45;;
58460;SDS011;45558;37.752;-97.822;2024-03-07T01:13:14;31.60;;;5.45;;
58460;SDS011;45558;37.752;-97.822;2024-03-07T01:15:44;24.63;;;4.00;;
58460;SDS011;45558;37.752;-97.822;2024-03-07T01:18:10;22.67;;;4.68;;
58460;SDS011;45558;37.752;-97.822;2024-03-07T01:20:36;19.90;;;4.30;;
58460;SDS011;45558;37.752;-97.822;2024-03-07T01:23:01;36.20;;;6.65;;
58460;SDS011;45558;37.752;-97.822;2024-03-07T01:25:27;32.90;;;4.32;;
58460;SDS011;45558;37.752;-97.822;2024-03-07T01:27:53;37.60;;;4.60;;
58460;SDS011;45558;37.752;-97.822;2024-03-07T01:30:20;31.15;;;3.97;;
58460;SDS011;45558;37.752;-97.822;2024-03-07T01:32:48;20.55;;;3.85;;
58460;SDS011;45558;37.752;-97.822;2024-03-07T01:35:14;28.67;;;3.33;;
58460;SDS011;45558;37.752;-97.822;2024-03-07T01:37:40;19.63;;;3.65;;
58460;SDS011;45558;37.752;-97.822;2024-03-07T01:40:05;24.83;;;3.33;;
58460;SDS011;45558;37.752;-97.822;2024-03-07T01:42:32;40.58;;;5.05;;
58460;SDS011;45558;37.752;-97.822;2024-03-07T01:44:57;29.13;;;3.90;;
58460;SDS011;45558;37.752;-97.822;2024-03-07T01:47:24;34.85;;;5.82;;
58460;SDS011;45558;37.752;-97.822;2024-03-07T01:49:50;25.85;;;4.05;;
58460;SDS011;45558;37.752;-97.822;2024-03-07T01:52:16;28.55;;;4.90;;
58460;SDS011;45558;37.752;-97.822;2024-03-07T01:54:42;25.33;;;3.33;;
58460;SDS011;45558;37.752;-97.822;2024-03-07T01:57:08;34.78;;;6.53;;
58460;SDS011;45558;37.752;-97.822;2024-03-07T01:59:34;17.60;;;3.83;;
58460;SDS011;45558;37.752;-97.822;2024-03-07T02:02:00;29.45;;;4.85;;
58460;SDS011;45558;37.752;-97.822;2024-03-07T02:10:14;29.98;;;4.30;;
58460;SDS011;45558;37.752;-97.822;2024-03-07T02:12:41;37.72;;;4.88;;
58460;SDS011;45558;37.752;-97.822;2024-03-07T02:15:07;43.90;;;4.82;;
58460;SDS011;45558;37.752;-97.822;2024-03-07T02:17:33;34.33;;;5.10;;
58460;SDS011;45558;37.752;-97.822;2024-03-07T02:20:00;26.35;;;4.97;;
58460;SDS011;45558;37.752;-97.822;2024-03-07T02:22:25;37.92;;;6.40;;
58460;SDS011;45558;37.752;-97.822;2024-03-07T02:24:51;30.20;;;4.38;;
58460;SDS011;45558;37.752;-97.822;2024-03-07T02:27:18;20.02;;;4.13;;
58460;SDS011;45558;37.752;-97.822;2024-03-07T02:29:43;28.70;;;4.03;;
58460;SDS011;45558;37.752;-97.822;2024-03-07T02:32:09;19.42;;;2.92;;
58460;SDS011;45558;37.752;-97.822;2024-03-07T02:34:35;27.83;;;4.82;;
58460;SDS011;45558;37.752;-97.822;2024-03-07T02:37:01;20.60;;;3.15;;
58460;SDS011;45558;37.752;-97.822;2024-03-07T02:39:27;29.02;;;4.45;;
58460;SDS011;45558;37.752;-97.822;2024-03-07T02:41:53;24.50;;;3.28;;
58460;SDS011;45558;37.752;-97.822;2024-03-07T02:44:19;24.05;;;3.67;;
58460;SDS011;45558;37.752;-97.822;2024-03-07T02:46:45;35.53;;;4.15;;
58460;SDS011;45558;37.752;-97.822;2024-03-07T02:49:12;21.08;;;3.55;;
58460;SDS011;45558;37.752;-97.822;2024-03-07T02:51:39;29.02;;;3.17;;
58460;SDS011;45558;37.752;-97.822;2024-03-07T02:54:07;31.73;;;3.40;;
58460;SDS011;45558;37.752;-97.822;2024-03-07T02:56:33;22.27;;;3.30;;
58460;SDS011;45558;37.752;-97.822;2024-03-07T02:58:59;21.60;;;3.47;;
58460;SDS011;45558;37.752;-97.822;2024-03-07T03:01:24;24.95;;;3.33;;
58460;SDS011;45558;37.752;-97.822;2024-03-07T03:03:50;36.20;;;5.50;;
58460;SDS011;45558;37.752;-97.822;2024-03-07T03:06:15;24.15;;;3.47;;
58460;SDS011;45558;37.752;-97.822;2024-03-07T03:08:41;20.80;;;3.15;;
58460;SDS011;45558;37.752;-97.822;2024-03-07T03:11:08;17.70;;;2.92;;
58460;SDS011;45558;37.752;-97.822;2024-03-07T03:13:34;19.40;;;3.38;;
58460;SDS011;45558;37.752;-97.822;2024-03-07T03:16:03;22.60;;;3.10;;
58460;SDS011;45558;37.752;-97.822;2024-03-07T03:18:32;24.17;;;2.72;;
58460;SDS011;45558;37.752;-97.822;2024-03-07T03:20:59;24.10;;;3.40;;
58460;SDS011;45558;37.752;-97.822;2024-03-07T03:23:25;24.98;;;3.42;;
58460;SDS011;45558;37.752;-97.822;2024-03-07T03:25:51;30.98;;;5.30;;
58460;SDS011;45558;37.752;-97.822;2024-03-07T03:28:16;23.60;;;2.97;;
58460;SDS011;45558;37.752;-97.822;2024-03-07T03:30:44;20.33;;;3.00;;
58460;SDS011;45558;37.752;-97.822;2024-03-07T03:33:10;28.75;;;5.35;;
58460;SDS011;45558;37.752;-97.822;2024-03-07T03:35:36;18.55;;;2.63;;
58460;SDS011;45558;37.752;-97.822;2024-03-07T03:38:02;28.90;;;4.55;;
58460;SDS011;45558;37.752;-97.822;2024-03-07T03:40:28;24.20;;;3.30;;
58460;SDS011;45558;37.752;-97.822;2024-03-07T03:42:54;24.58;;;4.32;;
58460;SDS011;45558;37.752;-97.822;2024-03-07T03:45:20;17.73;;;3.40;;
58460;SDS011;45558;37.752;-97.822;2024-03-07T03:47:46;27.52;;;3.05;;
58460;SDS011;45558;37.752;-97.822;2024-03-07T03:50:13;26.67;;;3.40;;
58460;SDS011;45558;37.752;-97.822;2024-03-07T03:52:39;32.63;;;3.90;;
58460;SDS011;45558;37.752;-97.822;2024-03-07T03:55:05;24.52;;;3.22;;
58460;SDS011;45558;37.752;-97.822;2024-03-07T03:57:31;35.33;;;3.80;;
58460;SDS011;45558;37.752;-97.822;2024-03-07T03:59:58;30.88;;;4.40;;
58460;SDS011;45558;37.752;-97.822;2024-03-07T04:02:24;22.20;;;4.00;;
58460;SDS011;45558;37.752;-97.822;2024-03-07T04:04:51;20.98;;;2.67;;
58460;SDS011;45558;37.752;-97.822;2024-03-07T04:07:20;30.23;;;3.83;;
58460;SDS011;45558;37.752;-97.822;2024-03-07T04:09:46;31.15;;;3.78;;
58460;SDS011;45558;37.752;-97.822;2024-03-07T04:12:13;16.20;;;2.60;;
58460;SDS011;45558;37.752;-97.822;2024-03-07T04:14:40;32.33;;;3.60;;
58460;SDS011;45558;37.752;-97.822;2024-03-07T04:17:10;33.63;;;3.40;;
58460;SDS011;45558;37.752;-97.822;2024-03-07T04:19:42;16.10;;;4.78;;
58460;SDS011;45558;37.752;-97.822;2024-03-07T04:22:08;28.60;;;4.32;;
58460;SDS011;45558;37.752;-97.822;2024-03-07T04:24:37;25.30;;;3.10;;
58460;SDS011;45558;37.752;-97.822;2024-03-07T04:27:03;23.67;;;3.05;;
58460;SDS011;45558;37.752;-97.822;2024-03-07T04:29:32;16.77;;;3.28;;
58460;SDS011;45558;37.752;-97.822;2024-03-07T04:31:59;26.17;;;4.25;;
58460;SDS011;45558;37.752;-97.822;2024-03-07T04:37:02;22.90;;;3.72;;
58460;SDS011;45558;37.752;-97.822;2024-03-07T04:39:27;25.50;;;3.50;;
58460;SDS011;45558;37.752;-97.822;2024-03-07T04:41:58;26.03;;;3.50;;
58460;SDS011;45558;37.752;-97.822;2024-03-07T04:47:49;31.63;;;4.93;;
58460;SDS011;45558;37.752;-97.822;2024-03-07T04:50:14;28.00;;;3.80;;
58460;SDS011;45558;37.752;-97.822;2024-03-07T04:52:44;26.20;;;3.28;;
58460;SDS011;45558;37.752;-97.822;2024-03-07T04:55:11;24.88;;;3.63;;
58460;SDS011;45558;37.752;-97.822;2024-03-07T04:57:38;36.35;;;4.60;;
58460;SDS011;45558;37.752;-97.822;2024-03-07T05:00:06;31.60;;;3.45;;
58460;SDS011;45558;37.752;-97.822;2024-03-07T05:02:38;24.75;;;4.15;;
58460;SDS011;45558;37.752;-97.822;2024-03-07T05:05:04;25.27;;;3.50;;
58460;SDS011;45558;37.752;-97.822;2024-03-07T05:07:30;39.03;;;4.25;;
58460;SDS011;45558;37.752;-97.822;2024-03-07T05:09:55;36.25;;;4.15;;
58460;SDS011;45558;37.752;-97.822;2024-03-07T05:12:21;24.73;;;3.97;;
58460;SDS011;45558;37.752;-97.822;2024-03-07T05:14:47;15.52;;;3.22;;
58460;SDS011;45558;37.752;-97.822;2024-03-07T05:20:35;23.80;;;5.40;;
58460;SDS011;45558;37.752;-97.822;2024-03-07T05:23:00;29.33;;;4.95;;
58460;SDS011;45558;37.752;-97.822;2024-03-07T05:25:29;27.27;;;3.47;;
58460;SDS011;45558;37.752;-97.822;2024-03-07T05:27:54;31.50;;;4.55;;
58460;SDS011;45558;37.752;-97.822;2024-03-07T05:30:20;29.85;;;4.90;;
58460;SDS011;45558;37.752;-97.822;2024-03-07T05:32:48;26.15;;;3.95;;
58460;SDS011;45558;37.752;-97.822;2024-03-07T05:35:14;21.90;;;3.75;;
58460;SDS011;45558;37.752;-97.822;2024-03-07T05:37:40;33.20;;;4.38;;
58460;SDS011;45558;37.752;-97.822;2024-03-07T05:40:12;33.13;;;5.03;;
58460;SDS011;45558;37.752;-97.822;2024-03-07T05:42:38;24.00;;;7.05;;
58460;SDS011;45558;37.752;-97.822;2024-03-07T05:45:03;34.35;;;8.50;;
58460;SDS011;45558;37.752;-97.822;2024-03-07T05:47:33;21.27;;;5.05;;
58460;SDS011;45558;37.752;-97.822;2024-03-07T05:49:59;26.60;;;4.43;;
58460;SDS011;45558;37.752;-97.822;2024-03-07T05:52:25;24.13;;;4.70;;
58460;SDS011;45558;37.752;-97.822;2024-03-07T05:54:50;22.63;;;5.68;;
58460;SDS011;45558;37.752;-97.822;2024-03-07T05:57:16;30.63;;;6.20;;
58460;SDS011;45558;37.752;-97.822;2024-03-07T05:59:42;26.20;;;5.30;;
58460;SDS011;45558;37.752;-97.822;2024-03-07T06:02:08;36.83;;;7.65;;
58460;SDS011;45558;37.752;-97.822;2024-03-07T06:04:33;33.53;;;6.65;;
58460;SDS011;45558;37.752;-97.822;2024-03-07T06:06:59;36.15;;;11.90;;
58460;SDS011;45558;37.752;-97.822;2024-03-07T06:09:25;45.17;;;9.48;;
58460;SDS011;45558;37.752;-97.822;2024-03-07T06:11:51;31.52;;;8.65;;
58460;SDS011;45558;37.752;-97.822;2024-03-07T06:14:17;30.90;;;8.45;;
58460;SDS011;45558;37.752;-97.822;2024-03-07T06:16:43;33.00;;;9.70;;
58460;SDS011;45558;37.752;-97.822;2024-03-07T06:19:09;28.85;;;7.40;;
58460;SDS011;45558;37.752;-97.822;2024-03-07T06:21:36;35.97;;;8.75;;
58460;SDS011;45558;37.752;-97.822;2024-03-07T06:24:04;27.88;;;8.98;;
58460;SDS011;45558;37.752;-97.822;2024-03-07T06:26:33;31.42;;;9.57;;
58460;SDS011;45558;37.752;-97.822;2024-03-07T06:29:05;42.25;;;9.25;;
58460;SDS011;45558;37.752;-97.822;2024-03-07T06:31:39;32.35;;;9.77;;
58460;SDS011;45558;37.752;-97.822;2024-03-07T06:34:05;39.08;;;12.48;;
58460;SDS011;45558;37.752;-97.822;2024-03-07T06:36:31;27.65;;;10.18;;
58460;SDS011;45558;37.752;-97.822;2024-03-07T06:38:58;32.42;;;9.98;;
58460;SDS011;45558;37.752;-97.822;2024-03-07T06:41:23;40.72;;;9.57;;
58460;SDS011;45558;37.752;-97.822;2024-03-07T06:43:50;43.17;;;11.00;;
58460;SDS011;45558;37.752;-97.822;2024-03-07T06:46:18;39.17;;;10.20;;
58460;SDS011;45558;37.752;-97.822;2024-03-07T06:48:46;33.90;;;11.05;;
58460;SDS011;45558;37.752;-97.822;2024-03-07T06:51:11;43.20;;;14.10;;
58460;SDS011;45558;37.752;-97.822;2024-03-07T06:53:38;37.20;;;10.75;;
58460;SDS011;45558;37.752;-97.822;2024-03-07T06:56:05;45.88;;;15.18;;
58460;SDS011;45558;37.752;-97.822;2024-03-07T06:58:31;29.15;;;9.32;;
58460;SDS011;45558;37.752;-97.822;2024-03-07T07:00:58;32.38;;;9.80;;
58460;SDS011;45558;37.752;-97.822;2024-03-07T07:03:26;29.90;;;9.45;;
58460;SDS011;45558;37.752;-97.822;2024-03-07T07:05:53;34.60;;;9.60;;
58460;SDS011;45558;37.752;-97.822;2024-03-07T07:08:22;28.30;;;8.63;;
58460;SDS011;45558;37.752;-97.822;2024-03-07T07:10:48;28.50;;;9.38;;
58460;SDS011;45558;37.752;-97.822;2024-03-07T07:13:14;25.48;;;8.93;;
58460;SDS011;45558;37.752;-97.822;2024-03-07T07:15:40;34.85;;;10.50;;
58460;SDS011;45558;37.752;-97.822;2024-03-07T07:18:06;31.42;;;9.93;;
58460;SDS011;45558;37.752;-97.822;2024-03-07T07:20:32;25.83;;;9.27;;
58460;SDS011;45558;37.752;-97.822;2024-03-07T07:23:02;31.20;;;9.45;;
58460;SDS011;45558;37.752;-97.822;2024-03-07T07:25:29;31.75;;;10.75;;
58460;SDS011;45558;37.752;-97.822;2024-03-07T07:27:55;32.53;;;9.75;;
58460;SDS011;45558;37.752;-97.822;2024-03-07T07:30:22;26.98;;;9.90;;
58460;SDS011;45558;37.752;-97.822;2024-03-07T07:32:48;27.00;;;9.25;;
58460;SDS011;45558;37.752;-97.822;2024-03-07T07:35:15;30.42;;;10.65;;
58460;SDS011;45558;37.752;-97.822;2024-03-07T07:37:42;23.48;;;8.70;;
58460;SDS011;45558;37.752;-97.822;2024-03-07T07:40:15;38.90;;;14.77;;
58460;SDS011;45558;37.752;-97.822;2024-03-07T07:42:45;22.38;;;8.88;;
58460;SDS011;45558;37.752;-97.822;2024-03-07T07:45:12;24.92;;;10.52;;
58460;SDS011;45558;37.752;-97.822;2024-03-07T07:47:39;28.23;;;9.57;;
58460;SDS011;45558;37.752;-97.822;2024-03-07T07:50:07;27.55;;;8.90;;
58460;SDS011;45558;37.752;-97.822;2024-03-07T07:55:07;24.20;;;8.90;;
58460;SDS011;45558;37.752;-97.822;2024-03-07T07:57:42;27.33;;;9.05;;
58460;SDS011;45558;37.752;-97.822;2024-03-07T08:00:15;24.85;;;8.65;;
58460;SDS011;45558;37.752;-97.822;2024-03-07T08:02:58;23.83;;;8.48;;
58460;SDS011;45558;37.752;-97.822;2024-03-07T08:05:26;28.67;;;9.63;;
58460;SDS011;45558;37.752;-97.822;2024-03-07T08:07:53;17.83;;;8.73;;
58460;SDS011;45558;37.752;-97.822;2024-03-07T08:10:26;25.25;;;8.63;;
58460;SDS011;45558;37.752;-97.822;2024-03-07T08:12:58;23.52;;;8.50;;
58460;SDS011;45558;37.752;-97.822;2024-03-07T08:15:26;28.00;;;8.52;;
58460;SDS011;45558;37.752;-97.822;2024-03-07T08:17:53;21.80;;;8.55;;
58460;SDS011;45558;37.752;-97.822;2024-03-07T08:20:20;19.65;;;8.10;;
58460;SDS011;45558;37.752;-97.822;2024-03-07T08:22:47;27.25;;;9.95;;
58460;SDS011;45558;37.752;-97.822;2024-03-07T08:25:16;30.20;;;10.88;;
58460;SDS011;45558;37.752;-97.822;2024-03-07T08:27:44;25.90;;;10.45;;
58460;SDS011;45558;37.752;-97.822;2024-03-07T08:30:11;26.73;;;9.98;;
58460;SDS011;45558;37.752;-97.822;2024-03-07T08:32:43;31.10;;;10.05;;
58460;SDS011;45558;37.752;-97.822;2024-03-07T08:35:14;24.42;;;10.40;;
58460;SDS011;45558;37.752;-97.822;2024-03-07T08:37:42;33.67;;;10.90;;
58460;SDS011;45558;37.752;-97.822;2024-03-07T08:40:09;28.40;;;10.85;;
58460;SDS011;45558;37.752;-97.822;2024-03-07T08:42:36;34.50;;;10.75;;
58460;SDS011;45558;37.752;-97.822;2024-03-07T08:45:03;28.52;;;11.00;;
58460;SDS011;45558;37.752;-97.822;2024-03-07T08:47:30;28.23;;;11.15;;
58460;SDS011;45558;37.752;-97.822;2024-03-07T08:49:56;30.42;;;11.15;;
58460;SDS011;45558;37.752;-97.822;2024-03-07T08:52:22;22.92;;;9.77;;
58460;SDS011;45558;37.752;-97.822;2024-03-07T08:58:10;24.13;;;13.38;;
58460;SDS011;45558;37.752;-97.822;2024-03-07T09:00:36;29.38;;;10.68;;
58460;SDS011;45558;37.752;-97.822;2024-03-07T09:03:02;24.63;;;9.98;;
58460;SDS011;45558;37.752;-97.822;2024-03-07T09:05:29;27.40;;;10.63;;
58460;SDS011;45558;37.752;-97.822;2024-03-07T09:07:58;22.92;;;10.88;;
58460;SDS011;45558;37.752;-97.822;2024-03-07T09:10:24;32.58;;;11.90;;
58460;SDS011;45558;37.752;-97.822;2024-03-07T09:12:51;28.77;;;12.55;;
58460;SDS011;45558;37.752;-97.822;2024-03-07T09:15:17;28.70;;;11.77;;
58460;SDS011;45558;37.752;-97.822;2024-03-07T09:17:46;25.70;;;10.82;;
58460;SDS011;45558;37.752;-97.822;2024-03-07T09:20:12;23.65;;;10.77;;
58460;SDS011;45558;37.752;-97.822;2024-03-07T09:22:44;26.52;;;11.20;;
58460;SDS011;45558;37.752;-97.822;2024-03-07T09:25:12;24.08;;;10.52;;
58460;SDS011;45558;37.752;-97.822;2024-03-07T09:27:38;22.05;;;10.63;;
58460;SDS011;45558;37.752;-97.822;2024-03-07T09:30:06;23.83;;;10.05;;
58460;SDS011;45558;37.752;-97.822;2024-03-07T09:32:39;24.60;;;9.25;;
58460;SDS011;45558;37.752;-97.822;2024-03-07T09:35:06;19.65;;;9.00;;
58460;SDS011;45558;37.752;-97.822;2024-03-07T09:37:39;22.35;;;8.02;;
58460;SDS011;45558;37.752;-97.822;2024-03-07T09:40:06;15.07;;;7.03;;
58460;SDS011;45558;37.752;-97.822;2024-03-07T09:42:35;20.90;;;8.90;;
58460;SDS011;45558;37.752;-97.822;2024-03-07T09:45:07;19.25;;;9.20;;
58460;SDS011;45558;37.752;-97.822;2024-03-07T09:47:33;22.92;;;8.27;;
58460;SDS011;45558;37.752;-97.822;2024-03-07T09:49:59;16.70;;;7.82;;
58460;SDS011;45558;37.752;-97.822;2024-03-07T09:52:25;18.60;;;8.10;;
58460;SDS011;45558;37.752;-97.822;2024-03-07T09:54:52;21.63;;;8.88;;
58460;SDS011;45558;37.752;-97.822;2024-03-07T09:57:18;22.20;;;8.43;;
58460;SDS011;45558;37.752;-97.822;2024-03-07T09:59:44;16.60;;;7.07;;
58460;SDS011;45558;37.752;-97.822;2024-03-07T10:02:11;16.73;;;8.10;;
58460;SDS011;45558;37.752;-97.822;2024-03-07T10:04:42;31.70;;;8.75;;
58460;SDS011;45558;37.752;-97.822;2024-03-07T10:07:10;14.20;;;7.78;;
58460;SDS011;45558;37.752;-97.822;2024-03-07T10:09:39;21.48;;;8.32;;
58460;SDS011;45558;37.752;-97.822;2024-03-07T10:12:07;22.02;;;8.80;;
58460;SDS011;45558;37.752;-97.822;2024-03-07T10:14:50;19.38;;;8.18;;
58460;SDS011;45558;37.752;-97.822;2024-03-07T10:17:17;22.88;;;9.32;;
58460;SDS011;45558;37.752;-97.822;2024-03-07T10:19:49;18.52;;;7.70;;
58460;SDS011;45558;37.752;-97.822;2024-03-07T10:22:16;17.30;;;8.50;;
58460;SDS011;45558;37.752;-97.822;2024-03-07T10:24:52;18.52;;;7.55;;
58460;SDS011;45558;37.752;-97.822;2024-03-07T10:27:19;19.52;;;8.07;;
58460;SDS011;45558;37.752;-97.822;2024-03-07T10:29:49;21.52;;;8.55;;
58460;SDS011;45558;37.752;-97.822;2024-03-07T10:32:20;31.85;;;12.68;;
58460;SDS011;45558;37.752;-97.822;2024-03-07T10:34:50;22.10;;;8.90;;
58460;SDS011;45558;37.752;-97.822;2024-03-07T10:37:18;23.90;;;9.38;;
58460;SDS011;45558;37.752;-97.822;2024-03-07T10:39:50;21.50;;;7.15;;
58460;SDS011;45558;37.752;-97.822;2024-03-07T10:42:16;22.92;;;6.90;;
58460;SDS011;45558;37.752;-97.822;2024-03-07T10:44:44;13.88;;;7.10;;
58460;SDS011;45558;37.752;-97.822;2024-03-07T10:47:18;17.88;;;8.02;;
58460;SDS011;45558;37.752;-97.822;2024-03-07T10:52:40;13.75;;;6.47;;
58460;SDS011;45558;37.752;-97.822;2024-03-07T10:57:49;18.25;;;7.20;;
58460;SDS011;45558;37.752;-97.822;2024-03-07T11:00:21;20.20;;;6.50;;
58460;SDS011;45558;37.752;-97.822;2024-03-07T11:03:01;17.50;;;6.50;;
58460;SDS011;45558;37.752;-97.822;2024-03-07T11:05:32;17.42;;;7.50;;
58460;SDS011;45558;37.752;-97.822;2024-03-07T11:07:59;13.65;;;5.15;;
58460;SDS011;45558;37.752;-97.822;2024-03-07T11:10:30;14.30;;;5.50;;
58460;SDS011;45558;37.752;-97.822;2024-03-07T11:12:56;13.20;;;5.43;;
58460;SDS011;45558;37.752;-97.822;2024-03-07T11:15:23;20.98;;;7.10;;
58460;SDS011;45558;37.752;-97.822;2024-03-07T11:17:51;17.98;;;6.68;;
58460;SDS011;45558;37.752;-97.822;2024-03-07T11:20:22;21.27;;;7.90;;
58460;SDS011;45558;37.752;-97.822;2024-03-07T11:22:49;19.45;;;7.90;;
58460;SDS011;45558;37.752;-97.822;2024-03-07T11:25:19;15.65;;;7.53;;
58460;SDS011;45558;37.752;-97.822;2024-03-07T11:27:56;15.00;;;6.72;;
58460;SDS011;45558;37.752;-97.822;2024-03-07T11:30:23;17.55;;;6.47;;
58460;SDS011;45558;37.752;-97.822;2024-03-07T11:32:50;14.27;;;6.70;;
58460;SDS011;45558;37.752;-97.822;2024-03-07T11:35:20;18.27;;;6.95;;
58460;SDS011;45558;37.752;-97.822;2024-03-07T11:37:57;12.55;;;5.78;;
58460;SDS011;45558;37.752;-97.822;2024-03-07T11:42:51;20.13;;;7.00;;
58460;SDS011;45558;37.752;-97.822;2024-03-07T11:45:18;20.73;;;6.85;;
58460;SDS011;45558;37.752;-97.822;2024-03-07T11:47:55;17.42;;;6.10;;
58460;SDS011;45558;37.752;-97.822;2024-03-07T11:50:42;15.73;;;6.30;;
58460;SDS011;45558;37.752;-97.822;2024-03-07T11:53:09;13.95;;;7.15;;
58460;SDS011;45558;37.752;-97.822;2024-03-07T11:55:38;18.55;;;7.13;;
58460;SDS011;45558;37.752;-97.822;2024-03-07T11:58:14;14.65;;;5.88;;
58460;SDS011;45558;37.752;-97.822;2024-03-07T12:00:45;15.60;;;6.03;;
58460;SDS011;45558;37.752;-97.822;2024-03-07T12:03:12;13.15;;;6.85;;
58460;SDS011;45558;37.752;-97.822;2024-03-07T12:05:48;17.08;;;6.43;;
58460;SDS011;45558;37.752;-97.822;2024-03-07T12:08:16;16.50;;;5.90;;
58460;SDS011;45558;37.752;-97.822;2024-03-07T12:10:42;15.75;;;5.82;;
58460;SDS011;45558;37.752;-97.822;2024-03-07T12:13:12;17.58;;;6.05;;
58460;SDS011;45558;37.752;-97.822;2024-03-07T12:15:42;22.40;;;6.47;;
58460;SDS011;45558;37.752;-97.822;2024-03-07T12:18:09;19.98;;;7.40;;
58460;SDS011;45558;37.752;-97.822;2024-03-07T12:20:36;16.10;;;7.50;;
58460;SDS011;45558;37.752;-97.822;2024-03-07T12:23:03;17.08;;;6.43;;
58460;SDS011;45558;37.752;-97.822;2024-03-07T12:25:36;20.52;;;7.72;;
58460;SDS011;45558;37.752;-97.822;2024-03-07T12:28:06;29.38;;;8.18;;
58460;SDS011;45558;37.752;-97.822;2024-03-07T12:30:38;20.92;;;9.02;;
58460;SDS011;45558;37.752;-97.822;2024-03-07T12:33:12;18.77;;;6.93;;
58460;SDS011;45558;37.752;-97.822;2024-03-07T12:35:48;11.82;;;6.72;;
58460;SDS011;45558;37.752;-97.822;2024-03-07T12:38:16;18.05;;;8.25;;
58460;SDS011;45558;37.752;-97.822;2024-03-07T12:41:01;25.50;;;7.28;;
58460;SDS011;45558;37.752;-97.822;2024-03-07T12:43:31;18.27;;;8.27;;
58460;SDS011;45558;37.752;-97.822;2024-03-07T12:45:57;14.80;;;7.82;;
58460;SDS011;45558;37.752;-97.822;2024-03-07T12:48:24;16.88;;;7.43;;
58460;SDS011;45558;37.752;-97.822;2024-03-07T12:50:50;14.07;;;6.55;;
58460;SDS011;45558;37.752;-97.822;2024-03-07T12:53:20;14.80;;;6.95;;
58460;SDS011;45558;37.752;-97.822;2024-03-07T12:55:47;15.52;;;7.80;;
58460;SDS011;45558;37.752;-97.822;2024-03-07T12:58:13;17.85;;;8.25;;
58460;SDS011;45558;37.752;-97.822;2024-03-07T13:00:40;15.90;;;7.88;;
58460;SDS011;45558;37.752;-97.822;2024-03-07T13:03:07;18.65;;;8.18;;
58460;SDS011;45558;37.752;-97.822;2024-03-07T13:05:39;15.93;;;7.55;;
58460;SDS011;45558;37.752;-97.822;2024-03-07T13:08:08;18.75;;;6.88;;
58460;SDS011;45558;37.752;-97.822;2024-03-07T13:10:44;10.23;;;6.63;;
58460;SDS011;45558;37.752;-97.822;2024-03-07T13:13:10;14.55;;;7.05;;
58460;SDS011;45558;37.752;-97.822;2024-03-07T13:15:39;15.30;;;7.07;;
58460;SDS011;45558;37.752;-97.822;2024-03-07T13:18:07;14.15;;;5.95;;
58460;SDS011;45558;37.752;-97.822;2024-03-07T13:20:36;20.17;;;9.00;;
58460;SDS011;45558;37.752;-97.822;2024-03-07T13:23:02;12.18;;;6.78;;
58460;SDS011;45558;37.752;-97.822;2024-03-07T13:25:28;13.85;;;6.28;;
58460;SDS011;45558;37.752;-97.822;2024-03-07T13:30:54;13.30;;;6.53;;
58460;SDS011;45558;37.752;-97.822;2024-03-07T13:33:20;18.98;;;6.53;;
58460;SDS011;45558;37.752;-97.822;2024-03-07T13:35:46;11.10;;;5.65;;
58460;SDS011;45558;37.752;-97.822;2024-03-07T13:38:12;12.85;;;5.38;;
58460;SDS011;45558;37.752;-97.822;2024-03-07T13:40:39;13.65;;;7.10;;
58460;SDS011;45558;37.752;-97.822;2024-03-07T13:43:05;8.60;;;5.32;;
58460;SDS011;45558;37.752;-97.822;2024-03-07T13:45:32;13.38;;;5.57;;
58460;SDS011;45558;37.752;-97.822;2024-03-07T13:48:06;11.05;;;5.85;;
58460;SDS011;45558;37.752;-97.822;2024-03-07T13:50:33;11.23;;;6.45;;
58460;SDS011;45558;37.752;-97.822;2024-03-07T13:53:00;15.73;;;6.93;;
58460;SDS011;45558;37.752;-97.822;2024-03-07T14:04:23;7.72;;;5.72;;
58460;SDS011;45558;37.752;-97.822;2024-03-07T14:23:18;10.07;;;4.60;;
58460;SDS011;45558;37.752;-97.822;2024-03-07T14:28:38;11.93;;;4.97;;
58460;SDS011;45558;37.752;-97.822;2024-03-07T14:31:13;13.68;;;5.65;;
58460;SDS011;45558;37.752;-97.822;2024-03-07T14:36:46;9.65;;;4.85;;
58460;SDS011;45558;37.752;-97.822;2024-03-07T14:39:16;8.57;;;4.32;;
58460;SDS011;45558;37.752;-97.822;2024-03-07T14:41:52;11.38;;;4.90;;
58460;SDS011;45558;37.752;-97.822;2024-03-07T14:47:45;13.70;;;6.25;;
58460;SDS011;45558;37.752;-97.822;2024-03-07T14:50:14;16.35;;;6.72;;
58460;SDS011;45558;37.752;-97.822;2024-03-07T14:52:44;15.93;;;6.20;;
58460;SDS011;45558;37.752;-97.822;2024-03-07T14:55:10;11.45;;;6.10;;
58460;SDS011;45558;37.752;-97.822;2024-03-07T14:57:39;12.13;;;6.40;;
58460;SDS011;45558;37.752;-97.822;2024-03-07T15:00:09;12.65;;;5.68;;
58460;SDS011;45558;37.752;-97.822;2024-03-07T15:02:47;16.42;;;6.43;;
58460;SDS011;45558;37.752;-97.822;2024-03-07T15:05:17;15.93;;;8.05;;
58460;SDS011;45558;37.752;-97.822;2024-03-07T15:07:47;12.48;;;7.88;;
58460;SDS011;45558;37.752;-97.822;2024-03-07T15:10:28;11.18;;;6.22;;
58460;SDS011;45558;37.752;-97.822;2024-03-07T15:12:57;13.63;;;6.20;;
58460;SDS011;45558;37.752;-97.822;2024-03-07T15:15:23;14.00;;;6.97;;
58460;SDS011;45558;37.752;-97.822;2024-03-07T15:17:56;12.75;;;7.60;;
58460;SDS011;45558;37.752;-97.822;2024-03-07T15:20:22;20.02;;;9.05;;